This is the latest recevied weather packets stored in our database for station/object SQ5SUI-3. If no packets are shown the sender has not sent any weather packets the latest 10 day(s).
| Time | Temp. | Humidity | Pressure | Rain* | Wind** | Luminosity | Snow |
|---|---|---|---|---|---|---|---|
| 1777514120 | -1.67° C | 76% | 992.1 hPa | 0 mm | - | - | - |
| 1777512321 | -1.67° C | 73% | 992.1 hPa | 0 mm | - | - | - |
| 1777510522 | -1.11° C | 75% | 992.4 hPa | 0 mm | - | - | - |
| 1777508722 | -2.78° C | 76% | 992.4 hPa | 0 mm | - | - | - |
| 1777506922 | -2.78° C | 74% | 992.2 hPa | 0 mm | - | - | - |
| 1777505122 | -2.22° C | 74% | 992.5 hPa | 0 mm | - | - | - |
| 1777503321 | -2.22° C | 73% | 992.5 hPa | 0 mm | - | - | - |
| 1777501522 | -2.22° C | 73% | 992.6 hPa | 0 mm | - | - | - |
| 1777499721 | -2.22° C | 71% | 992.7 hPa | 0 mm | - | - | - |
| 1777497921 | -1.67° C | 74% | 993 hPa | 0 mm | - | - | - |
| 1777496121 | -1.11° C | 73% | 993.5 hPa | 0 mm | - | - | - |
| 1777494321 | -1.11° C | 71% | 993.8 hPa | 0 mm | - | - | - |
| 1777492521 | 0° C | 67% | 994.2 hPa | 0 mm | - | - | - |
| 1777490722 | 0.56° C | 64% | 994 hPa | 0 mm | - | - | - |
| 1777488922 | 2.78° C | 54% | 994.1 hPa | 0 mm | - | - | - |
| 1777487121 | 4.44° C | 51% | 993.9 hPa | 0 mm | - | - | - |
| 1777485321 | 5° C | 50% | 993.9 hPa | 0 mm | - | - | - |
| 1777483521 | 5.56° C | 47% | 994.1 hPa | 0 mm | - | - | - |
| 1777481722 | 6.11° C | 43% | 994.4 hPa | 0 mm | - | - | - |
| 1777479922 | 7.22° C | 42% | 994.5 hPa | 0 mm | - | - | - |
| 1777478122 | 6.67° C | 41% | 994.5 hPa | 0 mm | - | - | - |
| 1777476322 | 6.67° C | 43% | 994.2 hPa | 0 mm | - | - | - |
| 1777474520 | 6.11° C | 42% | 994.4 hPa | 0 mm | - | - | - |
| 1777472720 | 6.11° C | 43% | 994.3 hPa | 0 mm | - | - | - |
| 1777470920 | 6.11° C | 45% | 994.2 hPa | 0 mm | - | - | - |
* Rain latest hour (hover to see other rain measurements)
** Current wind speed in m/s (hover to see current wind gust speed)